Tiempo atmosférico en la estación meteorológica de Lorca, Zarcilla de Ramos, Murcia (674 m.)



Fecha
DESCASC
Temp. máxima en grados centígrados (hora)
DESCASC
Temp. mínima en grados centígrados (hora)
DESCASC
Temp. media en grados centígrados
DESCASC
Racha de viento máxima en m/sg (hora)
DESCASC
Velocidad máxima media en intervalos de 10 minutos(hora)
DESCASC
Precipitaciones diarias en mm
DESCASC
Precipitaciones de 00:00 a 06:00 en mm
DESCASC
Precipitaciones de 06:00 a 12:00 en mm
DESCASC
Precipitaciones de 12:00 a 18:00 en mm
DESCASC
Precipitaciones de 18:00 a 24:00 en mm
DESCASC
25-04-2019 18.7 (12:10) 8.5 (07:10) 13.6 15.56 (15:30) 9.17 (17:30) 0 0 0 0 0
24-04-2019 19.6 (18:50) 5.5 (07:50) 12.6 13.33 (22:50) 7.78 (22:50) 0 0 0 0 0
23-04-2019 14.9 (18:10) 8.6 (00:20) 11.8 14.72 (20:30) 8.61 (13:20) 0.4 0 0 0.2 0.2
22-04-2019 16.3 (19:00) 8.1 (00:00) 12.2 11.39 (01:00) 7.78 (01:00) 0.4 0.4 0 0 0
21-04-2019 11 (14:50) 8.5 (00:00) 9.8 12.78 (08:20) 8.61 (08:00) 2.8 0.4 0 1.6 0.8
20-04-2019 12.1 (14:30) 8.3 (00:00) 10.2 16.39 (08:00) 10.56 (08:10) 36.8 22.2 11.4 3.2 0
19-04-2019 12.1 (17:50) 8.4 (00:00) 10.3 8.61 (21:50) 5.83 (21:50) 6.2 0 2.8 2 1.4
18-04-2019 14.8 (11:50) 8.7 (00:00) 11.8 17.78 (13:10) 10 (13:10) 5.2 0 0 5.2 0
17-04-2019 21.7 (16:00) 7.5 (00:00) 14.6 9.17 (16:10) 5.83 (14:20) 0 0 0 0 0
16-04-2019 23.4 (15:50) 9.9 (00:00) 16.6 10 (19:10) 6.94 (19:10) 0 0 0 0 0
15-04-2019 25.8 (13:30) 10.9 (00:00) 18.3 9.72 (15:50) 6.67 (16:00) 0 0 0 0 0
14-04-2019 26.2 (15:20) 9.9 (00:00) 18.1 10.28 (16:20) 6.11 (15:50) 0 0 0 0 0
13-04-2019 23.9 (17:20) 5.5 (00:00) 14.7 10 (18:10) 6.39 (18:10) 0 0 0 0 0
12-04-2019 20.6 (15:50) 5.5 (00:00) 13.1 9.44 (14:50) 5.83 (18:10) 0 0 0 0 0
11-04-2019 18.1 (16:30) 4.8 (00:00) 11.5 11.67 (11:10) 7.78 (11:30) 0 0 0 0 0
10-04-2019 16.4 (17:50) 6.5 (00:00) 11.4 14.72 (19:20) 10.28 (19:20) 1.8 0 0 0 1.8
09-04-2019 16.7 (16:00) 4.5 (00:00) 10.6 14.44 (21:40) 8.61 (16:20) 0.4 0 0 0 0.4
08-04-2019 18.8 (16:10) 10.6 (00:00) 14.7 11.11 (21:10) 6.67 (17:40) 0 0 0 0 0
07-04-2019 16.5 (17:10) 5.6 (00:00) 11 17.78 (11:10) 9.72 (00:20) 0.4 0.4 0 0 0
06-04-2019 14.5 (16:50) 3 (00:00) 8.8 16.67 (14:00) 9.17 (14:00) 0 0 0 0 0
05-04-2019 15.8 (12:20) 5 (00:00) 10.4 17.5 (14:50) 11.39 (14:40) 1.4 0 0 1.4 0
04-04-2019 16.6 (14:50) 4.3 (00:00) 10.5 10.28 (18:20) 7.5 (18:40) 0 0 0 0 0
03-04-2019 22.2 (15:50) 7.5 (00:00) 14.9 13.33 (17:50) 8.06 (17:50) 0 0 0 0 0
02-04-2019 20.3 (13:50) 6.5 (00:00) 13.4 8.61 (16:20) 5 (16:20) 0 0 0 0 0
01-04-2019 18.8 (14:50) 9 (00:00) 13.9 10 (17:40) 7.5 (17:50) 0 0 0 0 0
31-03-2019 10 (18:20) 6.9 (00:00) 8.5 8.33 (12:50) 5.56 (12:50) 8.6 1.8 6.2 0.4 0.2
30-03-2019 16.9 (14:30) 0.7 (00:00) 8.8 9.72 (16:50) 6.11 (16:50) 0 0 0 0 0
29-03-2019 14.7 (14:00) -0.6 (-00:0) 7 9.17 (13:50) 5 (12:10) 0 0 0 0 0
28-03-2019 16.7 (14:00) -1 (-00:0) 7.9 9.72 (15:20) 5.83 (18:20) 0 0 0 0 0
27-03-2019 15.9 (15:40) 2.2 (00:00) 9 9.72 (14:30) 6.39 (16:00) 0 0 0 0 0

Gráficas

Temp. máximas Temp. mínimas Temp. medias Precipitaciones Rachas de viento máximas Velocidades máximas media en intervalos de 10 minutos

Datos horarios

Fecha y hora oficial Temperatura (ºC) Velocidad del viento (km/h) Dirección del viento Racha (km/h) Dirección de racha Precipitación (mm) Presión (hPa) Tendencia (hPa) Humedad (%)
2019-04-25 23:00:00 12.7 12 Oeste 32 Oeste 0 -- -- 59
2019-04-25 22:00:00 13.7 14 Oeste 41 Oeste 0 -- -- 56
2019-04-25 21:00:00 14.8 18 Sudoeste 41 Oeste 0 -- -- 50
2019-04-25 20:00:00 16 19 Oeste 47 Sudoeste 0 -- -- 46
2019-04-25 19:00:00 17.4 28 Sudoeste 53 Oeste 0 -- -- 45
2019-04-25 18:00:00 18.5 28 Sudoeste 55 Sudoeste 0 -- -- 46
2019-04-25 17:00:00 18.6 27 Sudoeste 46 Sur 0 -- -- 48
2019-04-25 16:00:00 18.3 28 Sudoeste 56 Sudoeste 0 -- -- 51
2019-04-25 15:00:00 18.1 29 Oeste 55 Oeste 0 -- -- 53
2019-04-25 14:00:00 17.7 28 Sudoeste 47 Sudoeste 0 -- -- 55
2019-04-25 13:00:00 17.9 24 Sudoeste 35 Sudoeste 0 -- -- 58
2019-04-25 12:00:00 18.2 12 Sudoeste 35 Sur 0 -- -- 59
2019-04-25 11:00:00 17.5 15 Sudoeste 30 Sudoeste 0 -- -- 61
2019-04-25 10:00:00 13.7 2 Norte 8 Nordeste 0 -- -- 68
2019-04-25 09:00:00 11.1 3 Norte 10 Noroeste 0 -- -- 77
2019-04-25 08:00:00 9.7 3 Norte 10 Noroeste 0 -- -- 80
2019-04-25 07:00:00 8.6 2 Nordeste 9 Sudeste 0 -- -- 83
2019-04-25 06:00:00 9.5 5 Noroeste 9 Norte 0 -- -- 78
2019-04-25 05:00:00 10.2 4 Este 15 Noroeste 0 -- -- 73
2019-04-25 04:00:00 11.9 9 Oeste 28 Oeste 0 -- -- 66
2019-04-25 03:00:00 11.9 11 Oeste 21 Sudoeste 0 -- -- 65
2019-04-25 02:00:00 11.8 3 Sudeste 14 Oeste 0 -- -- 65
2019-04-25 01:00:00 12.8 7 Sudoeste 40 Sudoeste 0 -- -- 62
2019-04-25 00:00:00 13.5 19 Sudoeste 40 Sudoeste 0 -- -- 59
2019-04-24 23:00:00 14.1 24 Sudoeste 48 Sudoeste 0 -- -- 58
2019-04-24 22:00:00 14 15 Sudoeste 39 Oeste 0 -- -- 61
2019-04-24 21:00:00 14.9 21 Sudoeste 37 Oeste 0 -- -- 55
2019-04-24 20:00:00 17.4 16 Sudoeste 31 Oeste 0 -- -- 50
2019-04-24 19:00:00 19.5 13 Sur 27 Oeste 0 -- -- 52
2019-04-24 18:00:00 18.5 13 Sudeste 28 Sudeste 0 -- -- 52
2019-04-24 17:00:00 18.3 12 Sudeste 24 Sudeste 0 -- -- 50
2019-04-24 16:00:00 18.2 16 Sudeste 27 Sudeste 0 -- -- 46
2019-04-24 15:00:00 18.3 14 Sudeste 24 Sudeste 0 -- -- 46
2019-04-24 14:00:00 16.9 9 Sur 29 Sudoeste 0 -- -- 45
2019-04-24 13:00:00 15.8 15 Sudoeste 36 Oeste 0 -- -- 51
2019-04-24 12:00:00 13.6 25 Sudoeste 42 Oeste 0 -- -- 52
2019-04-24 11:00:00 12.6 21 Sudoeste 35 Sudoeste 0 -- -- 56
2019-04-24 10:00:00 11.1 15 Sudoeste 28 Sudoeste 0 -- -- 60
2019-04-24 09:00:00 8.9 4 Sur 8 Sur 0 -- -- 68
2019-04-24 08:00:00 5.9 3 Norte 9 Sudoeste 0 -- -- 78
2019-04-24 07:00:00 6.3 7 Sudoeste 25 Sudoeste 0 -- -- 74
2019-04-24 06:00:00 6.9 17 Sudoeste 33 Sudoeste 0 -- -- 72
2019-04-24 05:00:00 7.2 12 Oeste 34 Oeste 0 -- -- 69
2019-04-24 04:00:00 7.5 24 Oeste 46 Oeste 0 -- -- 68
2019-04-24 03:00:00 7.6 16 Sudoeste 41 Oeste 0 -- -- 68
2019-04-24 02:00:00 8 23 Oeste 42 Oeste 0 -- -- 66
2019-04-24 01:00:00 8.1 18 Oeste 42 Oeste 0 -- -- 66
2019-04-24 00:00:00 8.6 8 Oeste 31 Oeste 0 -- -- 61
2019-04-23 23:00:00 9.3 12 Oeste 32 Sudoeste 0 -- -- 55
2019-04-23 22:00:00 9.4 8 Oeste 37 Oeste 0 -- -- 60
2019-04-23 21:00:00 10.8 23 Oeste 53 Sudoeste 0.2 -- -- 57
2019-04-23 20:00:00 12.7 20 Sudoeste 34 Sudoeste 0 -- -- 49
2019-04-23 19:00:00 14.2 21 Sudoeste 39 Sudoeste 0 -- -- 42
2019-04-23 18:00:00 14 19 Sudoeste 48 Sudoeste 0 -- -- 43
2019-04-23 17:00:00 14.6 10 Sur 40 Oeste 0 -- -- 63
2019-04-23 16:00:00 11.8 14 Sur 42 Sudoeste 0 -- -- 72
2019-04-23 15:00:00 12.5 21 Sudoeste 40 Sudoeste 0.2 -- -- 63
2019-04-23 14:00:00 12.3 24 Oeste 46 Oeste 0 -- -- 69
2019-04-23 13:00:00 13.1 22 Oeste 41 Sudoeste 0 -- -- 66
2019-04-23 12:00:00 14.7 26 Oeste 40 Oeste 0 -- -- 57
2019-04-23 11:00:00 13.8 6 Sudoeste 30 Oeste 0 -- -- 62
2019-04-23 10:00:00 13.8 9 Sudoeste 26 Sudoeste 0 -- -- 58
2019-04-23 09:00:00 13.1 3 Sur 15 Norte 0 -- -- 61
2019-04-23 08:00:00 11.3 8 Oeste 20 Oeste 0 -- -- 66
2019-04-23 07:00:00 11.6 5 Sudoeste 22 Sudoeste 0 -- -- 66
2019-04-23 06:00:00 11.3 4 Sudoeste 15 Sudoeste 0 -- -- 69
2019-04-23 05:00:00 10.7 3 Este 18 Noroeste 0 -- -- 72
2019-04-23 04:00:00 11.7 6 Noroeste 24 Noroeste 0 -- -- 69
2019-04-23 03:00:00 11.2 3 Oeste 19 Sudoeste 0 -- -- 74
2019-04-23 02:00:00 10.1 5 Oeste 13 Oeste 0 -- -- 80
2019-04-23 01:00:00 10.9 9 Oeste 15 Oeste 0 -- -- 75
2019-04-23 00:00:00 9 4 Noroeste 8 Noroeste 0 -- -- 83
2019-04-22 23:00:00 9.8 6 Norte 9 Noroeste 0 -- -- 85
2019-04-22 22:00:00 11 5 Nordeste 12 Oeste 0 -- -- 81
2019-04-22 21:00:00 14.4 10 Oeste 26 Oeste 0 -- -- 59
2019-04-22 20:00:00 15.2 14 Oeste 26 Oeste 0 -- -- 58
2019-04-22 19:00:00 16.3 9 Sudoeste 19 Sudoeste 0 -- -- 58
2019-04-22 18:00:00 15 5 Sudoeste 16 Noroeste 0 -- -- 62
2019-04-22 17:00:00 14.7 12 Noroeste 26 Oeste 0 -- -- 60
2019-04-22 16:00:00 14.5 14 Oeste 25 Sudoeste 0 -- -- 60
2019-04-22 15:00:00 14.6 11 Oeste 23 Oeste 0 -- -- 63
2019-04-22 14:00:00 13.5 12 Noroeste 21 Noroeste 0 -- -- 63
2019-04-22 13:00:00 14.1 14 Noroeste 25 Oeste 0 -- -- 59
2019-04-22 12:00:00 12.9 13 Oeste 22 Noroeste 0 -- -- 68
2019-04-22 11:00:00 10.6 12 Noroeste 27 Noroeste 0 -- -- 77
2019-04-22 10:00:00 10.4 17 Noroeste 27 Noroeste 0 -- -- 76
2019-04-22 09:00:00 9.6 11 Noroeste 28 Noroeste 0 -- -- 81
2019-04-22 08:00:00 8.9 17 Noroeste 25 Noroeste 0 -- -- 85
2019-04-22 07:00:00 8.8 13 Noroeste 23 Noroeste 0 -- -- 85
2019-04-22 06:00:00 8.6 12 Noroeste 28 Norte 0 -- -- 87
2019-04-22 05:00:00 8.3 18 Norte 37 Noroeste 0 -- -- 88
2019-04-22 04:00:00 8.1 19 Noroeste 33 Noroeste 0 -- -- 86
2019-04-22 03:00:00 8.2 18 Norte 32 Noroeste 0 -- -- 86
2019-04-22 02:00:00 8.2 23 Norte 37 Noroeste 0 -- -- 86
2019-04-22 01:00:00 8.3 28 Noroeste 41 Noroeste 0.4 -- -- 87
2019-04-22 00:00:00 9.2 20 Norte 31 Noroeste 0.4 -- -- 85
2019-04-21 23:00:00 9.1 17 Noroeste 33 Noroeste 0 -- -- 87
2019-04-21 22:00:00 8.9 18 Norte 39 Noroeste 0 -- -- 87
2019-04-21 21:00:00 9.3 19 Norte 36 Noroeste 0 -- -- 89
2019-04-21 20:00:00 9.4 23 Noroeste 37 Norte 0.2 -- -- 90
2019-04-21 19:00:00 9.6 24 Norte 37 Norte 0.2 -- -- 89
2019-04-21 18:00:00 9.7 22 Norte 35 Norte 0.8 -- -- 90
2019-04-21 17:00:00 10 24 Norte 33 Norte 0.6 -- -- 88
2019-04-21 16:00:00 10.3 14 Norte 34 Norte 0.2 -- -- 87
2019-04-21 15:00:00 10.8 25 Norte 35 Norte 0 -- -- 79
2019-04-21 14:00:00 10.5 23 Norte 37 Norte 0 -- -- 81
2019-04-21 13:00:00 9.8 22 Norte 34 Norte 0 -- -- 82
2019-04-21 12:00:00 9.8 20 Norte 36 Noroeste 0 -- -- 82
2019-04-21 11:00:00 9.4 15 Norte 30 Noroeste 0 -- -- 83
2019-04-21 10:00:00 9.2 17 Norte 38 Norte 0 -- -- 82
2019-04-21 09:00:00 8.9 24 Norte 46 Norte 0 -- -- 83
2019-04-21 08:00:00 8.8 31 Norte 42 Noroeste 0 -- -- 83
2019-04-21 07:00:00 8.6 28 Norte 41 Norte 0 -- -- 86
2019-04-21 06:00:00 8.6 22 Norte 35 Norte 0 -- -- 88
2019-04-21 05:00:00 8.6 20 Norte 32 Noroeste 0.4 -- -- 90
2019-04-21 04:00:00 8.9 22 Norte 33 Noroeste 0 -- -- 88
2019-04-21 03:00:00 9.2 23 Norte 37 Norte 0 -- -- 87
2019-04-21 02:00:00 9.3 26 Norte 37 Norte 0 -- -- 88
2019-04-21 01:00:00 9.7 21 Norte 34 Norte 0 -- -- 87
2019-04-21 00:00:00 9.8 18 Norte 31 Noroeste 0 -- -- 88
2019-04-20 23:00:00 10 22 Norte 32 Norte 0 -- -- 87
2019-04-20 22:00:00 10.1 21 Norte 34 Norte 0 -- -- 87
2019-04-20 21:00:00 10.1 19 Norte 30 Norte 0 -- -- 87
2019-04-20 20:00:00 10.3 22 Norte 36 Norte 0 -- -- 87
2019-04-20 19:00:00 10.9 24 Norte 42 Norte 0 -- -- 87
2019-04-20 18:00:00 11.3 19 Norte 32 Norte 0.4 -- -- 87
2019-04-20 17:00:00 11.4 22 Norte 34 Norte 0 -- -- 86
2019-04-20 16:00:00 11.5 21 Norte 34 Norte 0 -- -- 87
2019-04-20 15:00:00 11.9 21 Norte 41 Norte 0 -- -- 87
2019-04-20 14:00:00 11.6 25 Norte 37 Norte 1.2 -- -- 89
2019-04-20 13:00:00 11.3 17 Norte 31 Norte 1.6 -- -- 92
2019-04-20 12:00:00 10.9 14 Norte 23 Norte 3 -- -- 93
2019-04-20 11:00:00 10.5 8 Nordeste 24 Norte 1.8 -- -- 93
2019-04-20 10:00:00 10.7 17 Norte 40 Norte 1 -- -- 92
2019-04-20 09:00:00 11.3 26 Nordeste 55 Nordeste 0 -- -- 87
2019-04-20 08:00:00 11.2 33 Nordeste 59 Nordeste 2 -- -- 88
2019-04-20 07:00:00 10.1 21 Norte 37 Norte 3.6 -- -- 94
2019-04-20 06:00:00 9.8 14 Noroeste 24 Noroeste 4.4 -- -- 92
2019-04-20 05:00:00 9.9 13 Noroeste 33 Noroeste 3.2 -- -- 92
2019-04-20 04:00:00 9.6 16 Noroeste 32 Noroeste 6.8 -- -- 95
2019-04-20 03:00:00 9.6 18 Norte 30 Noroeste 6.2 -- -- 95
2019-04-20 02:00:00 9 5 Noroeste 26 Noroeste 0 -- -- 90
2019-04-20 01:00:00 8.3 12 Noroeste 28 Norte 1.6 -- -- 93
2019-04-20 00:00:00 8.4 18 Norte 25 Norte 1.4 -- -- 92
2019-04-19 23:00:00 9 14 Norte 29 Norte 0 -- -- 89
2019-04-19 22:00:00 9.4 19 Norte 31 Norte 0 -- -- 87
2019-04-19 21:00:00 9.5 19 Norte 27 Norte 0 -- -- 87
2019-04-19 20:00:00 10.7 17 Norte 25 Norte 0 -- -- 83
2019-04-19 19:00:00 11.4 11 Norte 22 Norte 0 -- -- 81
2019-04-19 18:00:00 12.1 13 Norte 19 Norte 0 -- -- 78
2019-04-19 17:00:00 11.8 4 Nordeste 9 Nordeste 0 -- -- 81
2019-04-19 16:00:00 10.7 0 Calma 9 Sudoeste 0 -- -- 83
2019-04-19 15:00:00 10 6 Sudoeste 11 Sudoeste 0.4 -- -- 91
2019-04-19 14:00:00 10 7 Sur 12 Sur 0.8 -- -- 92
2019-04-19 13:00:00 10 2 Sudoeste 8 Sur 0.8 -- -- 93
2019-04-19 12:00:00 9.6 3 Este 8 Este 1.2 -- -- 93
2019-04-19 11:00:00 9.5 4 Norte 11 Norte 0.6 -- -- 92
2019-04-19 10:00:00 9.1 4 Norte 13 Noroeste 0.4 -- -- 93
2019-04-19 09:00:00 8.6 5 Norte 10 Norte 0.2 -- -- 94
2019-04-19 08:00:00 8.5 0 Calma 12 Norte 0.2 -- -- 92
2019-04-19 07:00:00 8.6 8 Norte 14 Norte 0.2 -- -- 90
2019-04-19 06:00:00 8.6 6 Norte 12 Norte 0 -- -- 89
2019-04-19 05:00:00 8.5 8 Norte 11 Norte 0 -- -- 91
2019-04-19 04:00:00 9.3 3 Noroeste 13 Noroeste 0 -- -- 81
2019-04-19 03:00:00 9.6 8 Noroeste 15 Noroeste 0 -- -- 78
2019-04-19 02:00:00 9.6 7 Noroeste 16 Noroeste 0 -- -- 78
2019-04-19 01:00:00 9.6 10 Noroeste 15 Noroeste 0 -- -- 78
2019-04-19 00:00:00 9.1 5 Oeste 12 Oeste 0 -- -- 91
2019-04-18 23:00:00 9 4 Noroeste 5 Noroeste 0 -- -- 91
2019-04-18 22:00:00 9 2 Nordeste 5 Noroeste 0 -- -- 90
2019-04-18 21:00:00 10.6 3 Este 8 Este 0 -- -- 83
2019-04-18 20:00:00 12.2 5 Este 12 Sur 0 -- -- 77
2019-04-18 19:00:00 13.6 6 Sur 12 Sur 0 -- -- 71
2019-04-18 18:00:00 10.9 2 Sudoeste 11 Nordeste 0 -- -- 84
2019-04-18 17:00:00 10 0 Calma 25 Oeste 0.6 -- -- 86
2019-04-18 16:00:00 9.9 8 Este 14 Nordeste 1.2 -- -- 86
2019-04-18 15:00:00 9.1 5 Este 39 Oeste 2.6 -- -- 87
2019-04-18 14:00:00 9.3 24 Oeste 64 Oeste 0.8 -- -- 79
2019-04-18 13:00:00 10.8 30 Sudoeste 45 Sudoeste 0 -- -- 70
2019-04-18 12:00:00 14.7 4 Sur 19 Norte 0 -- -- 58
2019-04-18 11:00:00 14.3 4 Sur 16 Noroeste 0 -- -- 59
2019-04-18 10:00:00 13.1 13 Norte 20 Noroeste 0 -- -- 68
2019-04-18 09:00:00 12.1 10 Norte 17 Noroeste 0 -- -- 74
2019-04-18 08:00:00 10.2 10 Norte 21 Noroeste 0 -- -- 80
2019-04-18 07:00:00 10.9 14 Noroeste 20 Noroeste 0 -- -- 75
2019-04-18 06:00:00 10.8 9 Norte 24 Noroeste 0 -- -- 78
2019-04-18 05:00:00 11.7 14 Noroeste 31 Noroeste 0 -- -- 70
2019-04-18 04:00:00 12.7 16 Norte 26 Noroeste 0 -- -- 60
2019-04-18 03:00:00 13.1 11 Noroeste 31 Noroeste 0 -- -- 55
2019-04-18 02:00:00 13.3 4 Oeste 25 Noroeste 0 -- -- 54
2019-04-18 01:00:00 12.9 8 Noroeste 31 Noroeste 0 -- -- 62
2019-04-18 00:00:00 12.5 19 Norte 29 Noroeste 0 -- -- 71
2019-04-17 23:00:00 13.1 16 Noroeste 27 Oeste 0 -- -- 65
2019-04-17 22:00:00 13.4 5 Oeste 13 Sudoeste 0 -- -- 74
2019-04-17 21:00:00 14.5 8 Sudoeste 13 Sudeste 0 -- -- 71
2019-04-17 20:00:00 16 13 Sudeste 22 Sudeste 0 -- -- 64
2019-04-17 19:00:00 16.8 14 Sudeste 27 Sudeste 0 -- -- 61
2019-04-17 18:00:00 17.9 18 Sudeste 29 Este 0 -- -- 55
2019-04-17 17:00:00 19.6 19 Este 33 Este 0 -- -- 49
2019-04-17 16:00:00 21.7 18 Sudeste 27 Sudeste 0 -- -- 45
2019-04-17 15:00:00 20.5 18 Sudeste 31 Sudeste 0 -- -- 47
2019-04-17 14:00:00 20.7 20 Sudeste 27 Sudeste 0 -- -- 45
2019-04-17 13:00:00 19.2 14 Sudeste 29 Sur 0 -- -- 51
2019-04-17 12:00:00 17.3 9 Sudeste 18 Sudeste 0 -- -- 57
2019-04-17 11:00:00 15 7 Este 15 Sudeste 0 -- -- 65
2019-04-17 10:00:00 12.7 4 Este 9 Noroeste 0 -- -- 73
2019-04-17 09:00:00 10.5 2 Nordeste 9 Noroeste 0 -- -- 82
2019-04-17 08:00:00 8.4 5 Norte 8 Norte 0 -- -- 90
2019-04-17 07:00:00 8.7 5 Noroeste 8 Noroeste 0 -- -- 90
2019-04-17 06:00:00 9 4 Noroeste 6 Noroeste 0 -- -- 88
2019-04-17 05:00:00 9.7 0 Calma 5 Norte 0 -- -- 86
2019-04-17 04:00:00 9.2 4 Nordeste 5 Este 0 -- -- 86
2019-04-17 03:00:00 9.7 0 Calma 6 Sudoeste 0 -- -- 85
2019-04-17 02:00:00 8.7 4 Noroeste 6 Noroeste 0 -- -- 90
2019-04-17 01:00:00 9.8 3 Sudoeste 9 Sudoeste 0 -- -- 85
2019-04-17 00:00:00 10.5 6 Sudoeste 9 Sur 0 -- -- 85
2019-04-16 23:00:00 11.5 4 Sur 13 Sur 0 -- -- 80
2019-04-16 22:00:00 12.7 6 Sur 16 Sudeste 0 -- -- 79
2019-04-16 21:00:00 13.9 12 Este 33 Este 0 -- -- 76
2019-04-16 20:00:00 16.2 22 Este 36 Este 0 -- -- 66
2019-04-16 19:00:00 20 22 Este 35 Este 0 -- -- 46
2019-04-16 18:00:00 21.8 21 Sudeste 36 Este 0 -- -- 38
2019-04-16 17:00:00 23.2 14 Sudeste 33 Sudeste 0 -- -- 35
2019-04-16 16:00:00 23 21 Sudeste 34 Sudeste 0 -- -- 35
2019-04-16 15:00:00 22.8 16 Sudeste 32 Este 0 -- -- 37
2019-04-16 14:00:00 23.1 16 Sur 27 Sur 0 -- -- 35
2019-04-16 13:00:00 21.9 8 Sur 20 Sur 0 -- -- 35
2019-04-16 12:00:00 20.7 8 Sudeste 19 Norte 0 -- -- 36
2019-04-16 11:00:00 18.1 13 Norte 20 Norte 0 -- -- 42
2019-04-16 10:00:00 16 12 Norte 18 Noroeste 0 -- -- 48
2019-04-16 09:00:00 14 12 Norte 16 Norte 0 -- -- 54
2019-04-16 08:00:00 10.6 5 Este 24 Noroeste 0 -- -- 69
2019-04-16 07:00:00 12.1 13 Noroeste 24 Oeste 0 -- -- 66
2019-04-16 06:00:00 12.2 15 Noroeste 20 Noroeste 0 -- -- 65
2019-04-16 05:00:00 12.2 10 Noroeste 15 Norte 0 -- -- 62
2019-04-16 04:00:00 12.6 6 Oeste 13 Norte 0 -- -- 59
2019-04-16 03:00:00 13.3 6 Noroeste 17 Noroeste 0 -- -- 54
2019-04-16 02:00:00 11.2 5 Oeste 15 Noroeste 0 -- -- 63
2019-04-16 01:00:00 10.2 8 Nordeste 15 Noroeste 0 -- -- 69
2019-04-16 00:00:00 11.1 4 Noroeste 8 Noroeste 0 -- -- 67
2019-04-15 23:00:00 11.8 3 Nordeste 12 Sudeste 0 -- -- 66
2019-04-15 22:00:00 14.4 5 Este 15 Sudeste 0 -- -- 50
2019-04-15 21:00:00 16.7 10 Sudeste 20 Este 0 -- -- 44
2019-04-15 20:00:00 19.5 13 Este 23 Sudeste 0 -- -- 40
2019-04-15 19:00:00 21.3 18 Sudeste 32 Sudeste 0 -- -- 38
2019-04-15 18:00:00 22.5 20 Este 30 Sudeste 0 -- -- 38
2019-04-15 17:00:00 24.4 21 Sudeste 35 Sudeste 0 -- -- 36
2019-04-15 16:00:00 25.4 24 Sudeste 35 Sudeste 0 -- -- 33
2019-04-15 15:00:00 24.9 18 Sudeste 28 Sudeste 0 -- -- 32
2019-04-15 14:00:00 24.9 17 Sudeste 26 Sudeste 0 -- -- 31
2019-04-15 13:00:00 25.3 14 Sudeste 24 Sudeste 0 -- -- 29
2019-04-15 12:00:00 24.5 15 Sudeste 24 Sudeste 0 -- -- 31
2019-04-15 11:00:00 21.9 3 Sudoeste 8 Sur 0 -- -- 41
2019-04-15 10:00:00 18.3 3 Sudoeste 7 Sur 0 -- -- 50
2019-04-15 09:00:00 13.5 0 Calma 6 Nordeste 0 -- -- 61
2019-04-15 08:00:00 11.6 2 Oeste 6 Sudoeste 0 -- -- 64
2019-04-15 07:00:00 12.7 2 Norte 18 Noroeste 0 -- -- 60
2019-04-15 06:00:00 12.5 0 Calma 9 Noroeste 0 -- -- 59
2019-04-15 05:00:00 12.8 0 Calma 10 Norte 0 -- -- 54
2019-04-15 04:00:00 13.5 0 Calma 9 Norte 0 -- -- 51
2019-04-15 03:00:00 14.1 5 Norte 9 Norte 0 -- -- 49
2019-04-15 02:00:00 14.8 7 Norte 16 Noroeste 0 -- -- 46
2019-04-15 01:00:00 14.9 12 Noroeste 15 Noroeste 0 -- -- 42
2019-04-15 00:00:00 14.6 8 Noroeste 13 Noroeste 0 -- -- 39
2019-04-14 23:00:00 14.9 10 Noroeste 12 Noroeste 0 -- -- 42
2019-04-14 22:00:00 16.5 5 Norte 9 Nordeste 0 -- -- 40
2019-04-14 21:00:00 18.8 9 Este 18 Este 0 -- -- 38
2019-04-14 20:00:00 22.1 13 Sudeste 24 Sudeste 0 -- -- 34
2019-04-14 19:00:00 24.5 14 Sudeste 23 Sudeste 0 -- -- 30
2019-04-14 18:00:00 25.5 14 Sur 27 Sudeste 0 -- -- 29
2019-04-14 17:00:00 25.5 16 Sudeste 37 Sudeste 0 -- -- 27
2019-04-14 16:00:00 25.4 19 Sudeste 34 Sudeste 0 -- -- 26
2019-04-14 15:00:00 25.9 12 Sur 21 Sudoeste 0 -- -- 22
2019-04-14 14:00:00 25.1 10 Sur 22 Sudeste 0 -- -- 24
2019-04-14 13:00:00 23.4 6 Sudeste 15 Sur 0 -- -- 26
2019-04-14 12:00:00 22.3 9 Sudeste 16 Sur 0 -- -- 27
2019-04-14 11:00:00 19.7 6 Oeste 12 Noroeste 0 -- -- 35
2019-04-14 10:00:00 17 6 Oeste 25 Norte 0 -- -- 42
2019-04-14 09:00:00 14 12 Norte 23 Noroeste 0 -- -- 47
2019-04-14 08:00:00 12.2 12 Norte 20 Norte 0 -- -- 50
2019-04-14 07:00:00 12.2 10 Norte 20 Norte 0 -- -- 50
2019-04-14 06:00:00 10.5 9 Nordeste 18 Norte 0 -- -- 55
2019-04-14 05:00:00 12.1 10 Norte 21 Norte 0 -- -- 51
2019-04-14 04:00:00 10.5 4 Nordeste 9 Este 0 -- -- 55
2019-04-14 03:00:00 12 7 Noroeste 22 Sudoeste 0 -- -- 51
2019-04-14 02:00:00 12.5 11 Noroeste 23 Noroeste 0 -- -- 49
2019-04-14 01:00:00 13.3 3 Sudeste 29 Oeste 0 -- -- 45
2019-04-14 00:00:00 12 7 Nordeste 15 Noroeste 0 -- -- 48
2019-04-13 23:00:00 10.8 6 Noroeste 11 Noroeste 0 -- -- 51
2019-04-13 22:00:00 12.2 5 Noroeste 10 Norte 0 -- -- 47
2019-04-13 21:00:00 14.7 6 Nordeste 13 Sudeste 0 -- -- 41
2019-04-13 20:00:00 19 11 Sudeste 24 Sudeste 0 -- -- 32
2019-04-13 19:00:00 20.2 18 Sudeste 36 Sudeste 0 -- -- 29
2019-04-13 18:00:00 23.3 7 Sudeste 34 Este 0 -- -- 25
2019-04-13 17:00:00 23.6 8 Sur 26 Este 0 -- -- 23
2019-04-13 16:00:00 22.9 12 Sudeste 21 Sudeste 0 -- -- 24
2019-04-13 15:00:00 22.2 8 Este 18 Sudeste 0 -- -- 24
2019-04-13 14:00:00 20.7 10 Sudoeste 22 Oeste 0 -- -- 25
2019-04-13 13:00:00 19.3 8 Oeste 25 Noroeste 0 -- -- 29
2019-04-13 12:00:00 18.8 8 Noroeste 29 Noroeste 0 -- -- 30
2019-04-13 11:00:00 17 15 Oeste 24 Oeste 0 -- -- 32
2019-04-13 10:00:00 14.9 4 Nordeste 14 Nordeste 0 -- -- 41
2019-04-13 09:00:00 11 9 Nordeste 14 Nordeste 0 -- -- 51
2019-04-13 08:00:00 5.9 3 Este 6 Nordeste 0 -- -- 64
2019-04-13 07:00:00 6.1 3 Sudeste 9 Este 0 -- -- 62
2019-04-13 06:00:00 6.5 6 Sudeste 13 Este 0 -- -- 60
2019-04-13 05:00:00 7.6 8 Norte 13 Norte 0 -- -- 57
2019-04-13 04:00:00 5.9 5 Sur 9 Sur 0 -- -- 61
2019-04-13 03:00:00 6.3 2 Sur 13 Norte 0 -- -- 58
2019-04-13 02:00:00 8.3 8 Nordeste 12 Oeste 0 -- -- 54
2019-04-13 01:00:00 12.8 10 Oeste 25 Oeste 0 -- -- 41
2019-04-13 00:00:00 13 16 Oeste 27 Oeste 0 -- -- 41
2019-04-12 23:00:00 10.1 4 Norte 10 Oeste 0 -- -- 50
2019-04-12 22:00:00 10.9 3 Oeste 9 Nordeste 0 -- -- 54
2019-04-12 21:00:00 13 4 Nordeste 11 Sudeste 0 -- -- 50
2019-04-12 20:00:00 18 7 Sur 18 Sudeste 0 -- -- 37
2019-04-12 19:00:00 18.4 13 Sudeste 33 Este 0 -- -- 35
2019-04-12 18:00:00 20.1 13 Sudeste 27 Sur 0 -- -- 29
2019-04-12 17:00:00 19.2 4 Norte 22 Nordeste 0 -- -- 26
2019-04-12 16:00:00 20.2 14 Sudoeste 27 Sur 0 -- -- 27
2019-04-12 15:00:00 19.8 12 Sudoeste 34 Sudoeste 0 -- -- 29
2019-04-12 14:00:00 18.6 12 Norte 27 Sudoeste 0 -- -- 28
2019-04-12 13:00:00 17.5 10 Noroeste 26 Oeste 0 -- -- 31
2019-04-12 12:00:00 16.1 12 Oeste 30 Oeste 0 -- -- 33
2019-04-12 11:00:00 14.6 18 Noroeste 28 Noroeste 0 -- -- 36
2019-04-12 10:00:00 12.5 3 Noroeste 9 Nordeste 0 -- -- 46
2019-04-12 09:00:00 8.8 5 Sudeste 17 Norte 0 -- -- 55
2019-04-12 08:00:00 5.5 2 Sur 18 Noroeste 0 -- -- 63
2019-04-12 07:00:00 7.5 12 Noroeste 18 Norte 0 -- -- 56
2019-04-12 06:00:00 7.6 13 Norte 22 Norte 0 -- -- 55
2019-04-12 05:00:00 5.8 2 Nordeste 17 Oeste 0 -- -- 61
2019-04-12 04:00:00 7.7 12 Norte 22 Oeste 0 -- -- 54
2019-04-12 03:00:00 9.8 13 Oeste 26 Oeste 0 -- -- 47
2019-04-12 02:00:00 10.3 14 Noroeste 28 Oeste 0 -- -- 46
2019-04-12 01:00:00 11.2 17 Oeste 27 Oeste 0 -- -- 44
2019-04-12 00:00:00 11.6 14 Oeste 22 Oeste 0 -- -- 44
2019-04-11 23:00:00 12.1 13 Oeste 23 Oeste 0 -- -- 41
2019-04-11 22:00:00 12.3 15 Oeste 27 Oeste 0 -- -- 42
2019-04-11 21:00:00 13.5 16 Oeste 30 Oeste 0 -- -- 37
2019-04-11 20:00:00 15.2 15 Noroeste 32 Noroeste 0 -- -- 34
2019-04-11 19:00:00 16 15 Noroeste 32 Noroeste 0 -- -- 32
2019-04-11 18:00:00 17.6 18 Noroeste 36 Noroeste 0 -- -- 29
2019-04-11 17:00:00 17.9 21 Noroeste 35 Noroeste 0 -- -- 28
2019-04-11 16:00:00 18 18 Noroeste 35 Norte 0 -- -- 29
2019-04-11 15:00:00 17.1 16 Norte 31 Noroeste 0 -- -- 32
2019-04-11 14:00:00 16.7 21 Norte 34 Norte 0 -- -- 32
2019-04-11 13:00:00 15.7 23 Norte 35 Norte 0 -- -- 36
2019-04-11 12:00:00 14.7 23 Oeste 42 Oeste 0 -- -- 42
2019-04-11 11:00:00 13.3 21 Oeste 35 Noroeste 0 -- -- 49
2019-04-11 10:00:00 11.1 13 Oeste 21 Sudoeste 0 -- -- 56
2019-04-11 09:00:00 8 2 Sudoeste 22 Norte 0 -- -- 69
2019-04-11 08:00:00 4.8 11 Norte 20 Norte 0 -- -- 80
2019-04-11 07:00:00 6.1 15 Noroeste 23 Oeste 0 -- -- 74
2019-04-11 06:00:00 6.1 13 Noroeste 22 Noroeste 0 -- -- 74
2019-04-11 05:00:00 6.1 4 Norte 19 Oeste 0 -- -- 74
2019-04-11 04:00:00 6.4 8 Noroeste 17 Oeste 0 -- -- 74
2019-04-11 03:00:00 6.5 3 Norte 32 Oeste 0 -- -- 73
2019-04-11 02:00:00 8.1 18 Oeste 29 Oeste 0 -- -- 66
2019-04-11 01:00:00 7.4 6 Oeste 30 Oeste 0 -- -- 71
2019-04-11 00:00:00 8.1 17 Oeste 28 Oeste 0 -- -- 70
2019-04-10 23:00:00 8.6 14 Oeste 33 Oeste 0 -- -- 68
2019-04-10 22:00:00 8.9 20 Oeste 37 Oeste 0 -- -- 71
2019-04-10 21:00:00 8.2 22 Oeste 32 Noroeste 1.2 -- -- 77
2019-04-10 20:00:00 8.1 22 Noroeste 53 Norte 0.6 -- -- 82
2019-04-10 19:00:00 12.2 23 Norte 31 Norte 0 -- -- 51
2019-04-10 18:00:00 16.1 19 Oeste 41 Oeste 0 -- -- 33
2019-04-10 17:00:00 16.2 18 Oeste 38 Noroeste 0 -- -- 30
2019-04-10 16:00:00 15.2 18 Noroeste 33 Noroeste 0 -- -- 37
2019-04-10 15:00:00 15.6 17 Noroeste 37 Sudoeste 0 -- -- 37
2019-04-10 14:00:00 15.8 20 Sudoeste 37 Oeste 0 -- -- 41
2019-04-10 13:00:00 14.9 10 Sudoeste 25 Oeste 0 -- -- 41
2019-04-10 12:00:00 12.5 8 Oeste 26 Sudoeste 0 -- -- 48
2019-04-10 11:00:00 11.9 13 Sudoeste 26 Oeste 0 -- -- 52
2019-04-10 10:00:00 11.2 9 Sudoeste 17 Sudoeste 0 -- -- 57
2019-04-10 09:00:00 9 7 Este 13 Nordeste 0 -- -- 65
2019-04-10 08:00:00 7.6 6 Sudoeste 22 Oeste 0 -- -- 66
2019-04-10 07:00:00 7.2 11 Noroeste 30 Oeste 0 -- -- 70
2019-04-10 06:00:00 8.3 10 Oeste 22 Oeste 0 -- -- 65
2019-04-10 05:00:00 8.3 4 Norte 43 Oeste 0 -- -- 66
2019-04-10 04:00:00 9.1 15 Oeste 46 Oeste 0 -- -- 65
2019-04-10 03:00:00 9.4 16 Oeste 31 Oeste 0 -- -- 64
2019-04-10 02:00:00 9.4 14 Oeste 25 Oeste 0 -- -- 64
2019-04-10 01:00:00 8.1 5 Noroeste 16 Oeste 0 -- -- 72
2019-04-10 00:00:00 8.4 9 Noroeste 24 Noroeste 0 -- -- 74
2019-04-09 23:00:00 9 17 Oeste 39 Oeste 0 -- -- 69
2019-04-09 22:00:00 9.4 23 Oeste 52 Sudoeste 0.4 -- -- 67
2019-04-09 21:00:00 11.7 12 Oeste 41 Sudoeste 0 -- -- 53
2019-04-09 20:00:00 13.8 17 Sudoeste 43 Oeste 0 -- -- 47
2019-04-09 19:00:00 15.2 17 Oeste 36 Oeste 0 -- -- 41
2019-04-09 18:00:00 15.5 22 Noroeste 39 Sudoeste 0 -- -- 41
2019-04-09 17:00:00 15.3 22 Sudoeste 49 Sudoeste 0 -- -- 43
2019-04-09 16:00:00 16.7 20 Sudoeste 38 Oeste 0 -- -- 37
2019-04-09 15:00:00 16.1 18 Oeste 35 Oeste 0 -- -- 40
2019-04-09 14:00:00 14.8 23 Sudoeste 42 Sudoeste 0 -- -- 42
2019-04-09 13:00:00 14.1 21 Oeste 36 Oeste 0 -- -- 43
2019-04-09 12:00:00 14.3 17 Oeste 36 Noroeste 0 -- -- 42
2019-04-09 11:00:00 13 13 Sudoeste 28 Sudoeste 0 -- -- 48
2019-04-09 10:00:00 11.6 12 Sudoeste 19 Sur 0 -- -- 54
2019-04-09 09:00:00 8.2 4 Este 9 Norte 0 -- -- 74
2019-04-09 08:00:00 5.1 2 Noroeste 9 Norte 0 -- -- 84
2019-04-09 07:00:00 6.2 3 Oeste 11 Noroeste 0 -- -- 80
2019-04-09 06:00:00 7.2 5 Oeste 12 Noroeste 0 -- -- 75
2019-04-09 05:00:00 8.3 8 Oeste 12 Oeste 0 -- -- 72
2019-04-09 04:00:00 9.6 4 Noroeste 21 Noroeste 0 -- -- 65
2019-04-09 03:00:00 10.6 7 Noroeste 29 Oeste 0 -- -- 60
2019-04-09 02:00:00 11.4 18 Oeste 41 Noroeste 0 -- -- 66
2019-04-09 01:00:00 12 15 Oeste 40 Oeste 0 -- -- 67
2019-04-09 00:00:00 12.6 18 Sudoeste 38 Sudoeste 0 -- -- 68
2019-04-08 23:00:00 12 6 Sudoeste 27 Oeste 0 -- -- 68
2019-04-08 22:00:00 13.4 15 Sudoeste 40 Oeste 0 -- -- 63
2019-04-08 21:00:00 14.6 15 Oeste 34 Oeste 0 -- -- 60
2019-04-08 20:00:00 16.6 17 Sudoeste 34 Sudoeste 0 -- -- 52
2019-04-08 19:00:00 17.9 16 Oeste 31 Sudoeste 0 -- -- 49
2019-04-08 18:00:00 16.8 20 Sudoeste 38 Sudoeste 0 -- -- 51
2019-04-08 17:00:00 17.4 24 Sudoeste 36 Sudoeste 0 -- -- 50
2019-04-08 16:00:00 18.7 18 Sudoeste 33 Sudoeste 0 -- -- 46
2019-04-08 15:00:00 16.8 19 Sudoeste 37 Sudoeste 0 -- -- 53
2019-04-08 14:00:00 15.3 22 Sudoeste 39 Sudoeste 0 -- -- 56
2019-04-08 13:00:00 14.4 22 Sudoeste 36 Sudoeste 0 -- -- 59
2019-04-08 12:00:00 13.5 13 Sudoeste 27 Oeste 0 -- -- 64
2019-04-08 11:00:00 12.7 15 Sudoeste 35 Sudoeste 0 -- -- 65
2019-04-08 10:00:00 12.1 11 Oeste 29 Sudoeste 0 -- -- 70
2019-04-08 09:00:00 11.6 16 Sudoeste 28 Sudoeste 0 -- -- 74
2019-04-08 08:00:00 11.1 13 Sudoeste 22 Oeste 0 -- -- 77
2019-04-08 07:00:00 11 12 Sudoeste 24 Oeste 0 -- -- 77
2019-04-08 06:00:00 10.9 9 Oeste 20 Sudoeste 0 -- -- 78
2019-04-08 05:00:00 11.1 14 Oeste 31 Oeste 0 -- -- 77
2019-04-08 04:00:00 11.2 15 Oeste 38 Oeste 0 -- -- 77
2019-04-08 03:00:00 11.4 11 Sudoeste 21 Sudoeste 0 -- -- 76
2019-04-08 02:00:00 11.2 11 Sudoeste 23 Sur 0 -- -- 73
2019-04-08 01:00:00 11.2 11 Sudoeste 25 Oeste 0 -- -- 72
2019-04-08 00:00:00 10.6 14 Oeste 24 Sudoeste 0 -- -- 72
2019-04-07 23:00:00 10.6 13 Sudoeste 25 Sudoeste 0 -- -- 71
2019-04-07 22:00:00 11.6 17 Sudoeste 29 Sudoeste 0 -- -- 65
2019-04-07 21:00:00 12.6 8 Sudoeste 19 Oeste 0 -- -- 53
2019-04-07 20:00:00 13.1 12 Oeste 23 Sudoeste 0 -- -- 51
2019-04-07 19:00:00 14.5 14 Oeste 33 Noroeste 0 -- -- 44
2019-04-07 18:00:00 15.1 22 Oeste 37 Noroeste 0 -- -- 43
2019-04-07 17:00:00 16.1 19 Oeste 48 Noroeste 0 -- -- 38
2019-04-07 16:00:00 15.8 29 Oeste 57 Oeste 0 -- -- 36
2019-04-07 15:00:00 14.7 27 Oeste 51 Noroeste 0 -- -- 37
2019-04-07 14:00:00 14.1 19 Oeste 45 Noroeste 0 -- -- 40
2019-04-07 13:00:00 12.8 26 Noroeste 55 Oeste 0 -- -- 46
2019-04-07 12:00:00 12.9 22 Oeste 64 Noroeste 0 -- -- 47
2019-04-07 11:00:00 11.1 32 Oeste 56 Oeste 0 -- -- 53
2019-04-07 10:00:00 9.2 27 Oeste 58 Oeste 0 -- -- 63
2019-04-07 09:00:00 8.1 24 Oeste 42 Oeste 0 -- -- 67
2019-04-07 08:00:00 6.7 15 Sudoeste 42 Sudoeste 0 -- -- 73
2019-04-07 07:00:00 6.5 21 Oeste 48 Oeste 0 -- -- 75
2019-04-07 06:00:00 6.2 17 Sudoeste 36 Oeste 0 -- -- 78
2019-04-07 05:00:00 6 22 Oeste 38 Oeste 0.4 -- -- 80
2019-04-07 04:00:00 6 14 Oeste 34 Oeste 0 -- -- 78
2019-04-07 03:00:00 5.9 14 Oeste 31 Oeste 0 -- -- 74
2019-04-07 02:00:00 6 18 Oeste 49 Oeste 0 -- -- 73
2019-04-07 01:00:00 6.5 33 Oeste 51 Oeste 0 -- -- 69
2019-04-07 00:00:00 6.3 17 Oeste 35 Oeste 0 -- -- 69
2019-04-06 23:00:00 7.2 16 Oeste 35 Sudoeste 0 -- -- 59
2019-04-06 22:00:00 7.3 18 Oeste 32 Oeste 0 -- -- 66
2019-04-06 21:00:00 7.7 14 Oeste 41 Oeste 0 -- -- 66
2019-04-06 20:00:00 10.1 18 Sudoeste 41 Sudoeste 0 -- -- 53
2019-04-06 19:00:00 12.7 28 Oeste 46 Oeste 0 -- -- 40
2019-04-06 18:00:00 13.3 24 Oeste 48 Oeste 0 -- -- 42
2019-04-06 17:00:00 14.4 26 Oeste 48 Oeste 0 -- -- 42
2019-04-06 16:00:00 14 26 Sudoeste 46 Sudoeste 0 -- -- 44
2019-04-06 15:00:00 13.2 27 Sudoeste 50 Oeste 0 -- -- 48
2019-04-06 14:00:00 10.2 33 Oeste 60 Oeste 0 -- -- 64
2019-04-06 13:00:00 12.7 24 Sudoeste 50 Sudoeste 0 -- -- 46
2019-04-06 12:00:00 12.1 18 Sudoeste 33 Sudoeste 0 -- -- 49
2019-04-06 11:00:00 10.8 20 Sudoeste 34 Sudoeste 0 -- -- 54
2019-04-06 10:00:00 8 4 Sudeste 17 Oeste 0 -- -- 64
2019-04-06 09:00:00 7 10 Sudoeste 38 Oeste 0 -- -- 64
2019-04-06 08:00:00 5.7 20 Oeste 41 Oeste 0 -- -- 65
2019-04-06 07:00:00 4.2 4 Noroeste 17 Oeste 0 -- -- 74
2019-04-06 06:00:00 4.8 7 Sudoeste 24 Noroeste 0 -- -- 72
2019-04-06 05:00:00 3 7 Norte 16 Oeste 0 -- -- 82
2019-04-06 04:00:00 4.9 3 Nordeste 41 Sudoeste 0 -- -- 76
2019-04-06 03:00:00 6.1 20 Sudoeste 43 Sudoeste 0 -- -- 70
2019-04-06 02:00:00 6.6 17 Sudoeste 45 Sudoeste 0 -- -- 64
2019-04-06 01:00:00 6.7 16 Sudoeste 27 Sudoeste 0 -- -- 63
2019-04-06 00:00:00 6.6 5 Oeste 31 Oeste 0 -- -- 61
2019-04-05 23:00:00 6.7 19 Oeste 41 Noroeste 0 -- -- 59
2019-04-05 22:00:00 6.7 8 Noroeste 31 Oeste 0 -- -- 63
2019-04-05 21:00:00 7.4 15 Oeste 39 Oeste 0 -- -- 64
2019-04-05 20:00:00 9.7 10 Sudoeste 48 Sudoeste 0 -- -- 59
2019-04-05 19:00:00 12.1 18 Sudoeste 41 Sudoeste 0 -- -- 54
2019-04-05 18:00:00 9.6 22 Sudoeste 55 Oeste 0.2 -- -- 63
2019-04-05 17:00:00 10.5 8 Sudoeste 50 Oeste 0 -- -- 62
2019-04-05 16:00:00 8.4 14 Oeste 50 Oeste 0.2 -- -- 75
2019-04-05 15:00:00 7.5 31 Oeste 63 Oeste 1 -- -- 78
2019-04-05 14:00:00 12.5 17 Oeste 37 Oeste 0 -- -- 54
2019-04-05 13:00:00 14 15 Sudeste 26 Sudeste 0 -- -- 49
2019-04-05 12:00:00 15.2 10 Sur 24 Oeste 0 -- -- 41
2019-04-05 11:00:00 12.4 10 Sudoeste 38 Oeste 0 -- -- 48
2019-04-05 10:00:00 10.9 12 Sudoeste 27 Sudoeste 0 -- -- 50
2019-04-05 09:00:00 9.1 8 Oeste 28 Oeste 0 -- -- 55
2019-04-05 08:00:00 8.1 21 Oeste 30 Oeste 0 -- -- 56
2019-04-05 07:00:00 5.1 5 Noroeste 18 Oeste 0 -- -- 86
2019-04-05 06:00:00 5.8 4 Nordeste 15 Noroeste 0 -- -- 87
2019-04-05 05:00:00 6.3 7 Noroeste 13 Noroeste 0 -- -- 90
2019-04-05 04:00:00 8.2 3 Este 4 Sur 0 -- -- 85
2019-04-05 03:00:00 8.4 2 Sudeste 8 Este 0 -- -- 85
2019-04-05 02:00:00 9 5 Sudeste 15 Sudeste 0 -- -- 82
2019-04-05 01:00:00 9.1 9 Sudeste 18 Sudeste 0 -- -- 80
2019-04-05 00:00:00 9.1 12 Sudeste 22 Sudeste 0 -- -- 78
2019-04-04 23:00:00 9.3 16 Sudeste 25 Sudeste 0 -- -- 76
2019-04-04 22:00:00 9.5 19 Sudeste 29 Sudeste 0 -- -- 76
2019-04-04 21:00:00 9.7 20 Sudeste 32 Sudeste 0 -- -- 72
2019-04-04 20:00:00 10.3 22 Sudeste 33 Sudeste 0 -- -- 69
2019-04-04 19:00:00 11.4 27 Sudeste 37 Sudeste 0 -- -- 67
2019-04-04 18:00:00 12.9 23 Sudeste 35 Sudeste 0 -- -- 62
2019-04-04 17:00:00 14.5 19 Sudeste 31 Sudeste 0 -- -- 55
2019-04-04 16:00:00 15.3 15 Sudeste 32 Sudeste 0 -- -- 49
2019-04-04 15:00:00 16.3 13 Sur 29 Sudeste 0 -- -- 41
2019-04-04 14:00:00 16.3 13 Sudeste 24 Sudeste 0 -- -- 37
2019-04-04 13:00:00 15 8 Sur 18 Sudeste 0 -- -- 33
2019-04-04 12:00:00 12.4 7 Norte 16 Noroeste 0 -- -- 34
2019-04-04 11:00:00 11.8 8 Norte 25 Norte 0 -- -- 35
2019-04-04 10:00:00 10.3 13 Norte 21 Norte 0 -- -- 38
2019-04-04 09:00:00 7.2 0 Calma 9 Noroeste 0 -- -- 65
2019-04-04 08:00:00 4.9 2 Norte 11 Nordeste 0 -- -- 68
2019-04-04 07:00:00 7.1 10 Norte 20 Noroeste 0 -- -- 53
2019-04-04 06:00:00 7.7 9 Noroeste 18 Noroeste 0 -- -- 52
2019-04-04 05:00:00 8.4 12 Noroeste 16 Noroeste 0 -- -- 52
2019-04-04 04:00:00 9 13 Noroeste 22 Noroeste 0 -- -- 54
2019-04-04 03:00:00 9.9 7 Noroeste 23 Oeste 0 -- -- 59
2019-04-04 02:00:00 13.4 18 Oeste 31 Oeste 0 -- -- 46
2019-04-04 01:00:00 13.3 10 Oeste 24 Noroeste 0 -- -- 47
2019-04-04 00:00:00 12.7 10 Nordeste 23 Oeste 0 -- -- 51
2019-04-03 23:00:00 15 14 Oeste 30 Oeste 0 -- -- 44
2019-04-03 22:00:00 15.1 12 Oeste 25 Noroeste 0 -- -- 42
2019-04-03 21:00:00 16.6 13 Oeste 34 Oeste 0 -- -- 37
2019-04-03 20:00:00 19.1 16 Oeste 39 Oeste 0 -- -- 33
2019-04-03 19:00:00 20.6 21 Sudoeste 39 Sudoeste 0 -- -- 29
2019-04-03 18:00:00 21.7 22 Sudoeste 48 Sudoeste 0 -- -- 30
2019-04-03 17:00:00 21.8 24 Sudoeste 41 Sudoeste 0 -- -- 28
2019-04-03 16:00:00 21.7 20 Sudoeste 42 Oeste 0 -- -- 26
2019-04-03 15:00:00 21.2 22 Sudoeste 38 Sudoeste 0 -- -- 27
2019-04-03 14:00:00 20.5 17 Oeste 31 Sudoeste 0 -- -- 27
2019-04-03 13:00:00 19 21 Sudoeste 36 Sudoeste 0 -- -- 32
2019-04-03 12:00:00 17.8 11 Sudoeste 27 Sudoeste 0 -- -- 43
2019-04-03 11:00:00 16.2 10 Sudoeste 23 Oeste 0 -- -- 51
2019-04-03 10:00:00 13.6 13 Noroeste 19 Oeste 0 -- -- 63
2019-04-03 09:00:00 10.2 9 Norte 17 Noroeste 0 -- -- 71
2019-04-03 08:00:00 9 11 Norte 19 Norte 0 -- -- 74
2019-04-03 07:00:00 10 11 Oeste 17 Norte 0 -- -- 71
2019-04-03 06:00:00 8.9 12 Norte 18 Norte 0 -- -- 73
2019-04-03 05:00:00 9.6 9 Norte 23 Norte 0 -- -- 69
2019-04-03 04:00:00 7.5 9 Norte 13 Norte 0 -- -- 81
2019-04-03 03:00:00 8.4 0 Calma 15 Noroeste 0 -- -- 78
2019-04-03 02:00:00 10.3 11 Noroeste 15 Noroeste 0 -- -- 72
2019-04-03 01:00:00 8.8 9 Norte 18 Norte 0 -- -- 85
2019-04-03 00:00:00 10.4 8 Noroeste 13 Norte 0 -- -- 79
2019-04-02 23:00:00 10.4 5 Noroeste 10 Norte 0 -- -- 80
2019-04-02 22:00:00 12.3 5 Norte 9 Noroeste 0 -- -- 74
2019-04-02 21:00:00 13.2 5 Nordeste 9 Sudeste 0 -- -- 74
2019-04-02 20:00:00 15.6 7 Sudeste 24 Este 0 -- -- 65
2019-04-02 19:00:00 17.3 12 Sudeste 20 Este 0 -- -- 56
2019-04-02 18:00:00 18.9 9 Este 16 Norte 0 -- -- 45
2019-04-02 17:00:00 18.5 13 Norte 31 Noroeste 0 -- -- 49
2019-04-02 16:00:00 16.8 17 Norte 23 Noroeste 0 -- -- 55
2019-04-02 15:00:00 18.9 8 Sudoeste 16 Sudoeste 0 -- -- 40
2019-04-02 14:00:00 20.3 13 Sur 21 Sur 0 -- -- 36
2019-04-02 13:00:00 18.5 7 Sudoeste 27 Sur 0 -- -- 42
2019-04-02 12:00:00 16.7 5 Sudoeste 13 Sur 0 -- -- 51
2019-04-02 11:00:00 13.9 9 Oeste 21 Noroeste 0 -- -- 65
2019-04-02 10:00:00 12.6 8 Noroeste 18 Norte 0 -- -- 74
2019-04-02 09:00:00 9.6 11 Norte 20 Noroeste 0 -- -- 89
2019-04-02 08:00:00 6.7 6 Norte 9 Noroeste 0 -- -- 95
2019-04-02 07:00:00 6.9 2 Norte 10 Noroeste 0 -- -- 92
2019-04-02 06:00:00 8.6 8 Noroeste 14 Noroeste 0 -- -- 92
2019-04-02 05:00:00 9.9 3 Oeste 7 Sudoeste 0 -- -- 93
2019-04-02 04:00:00 10 3 Sur 4 Sudeste 0 -- -- 94
2019-04-02 03:00:00 10 2 Nordeste 5 Este 0 -- -- 93
2019-04-02 02:00:00 10.2 3 Este 5 Este 0 -- -- 93
2019-04-02 01:00:00 10.4 2 Sudeste 5 Sur 0 -- -- 90
2019-04-02 00:00:00 10.9 0 Calma 4 Norte 0 -- -- 90
2019-04-01 23:00:00 10.9 2 Nordeste 9 Sudeste 0 -- -- 91
2019-04-01 22:00:00 11.3 8 Sudeste 13 Este 0 -- -- 89
2019-04-01 21:00:00 11.5 7 Este 24 Sudeste 0 -- -- 86
2019-04-01 20:00:00 12.5 17 Sudeste 33 Sudeste 0 -- -- 81
2019-04-01 19:00:00 14 22 Sudeste 32 Sudeste 0 -- -- 73
2019-04-01 18:00:00 15.5 24 Sudeste 36 Sudeste 0 -- -- 67
2019-04-01 17:00:00 17.3 14 Sudeste 34 Sur 0 -- -- 60
2019-04-01 16:00:00 17.9 26 Sudeste 33 Sudeste 0 -- -- 61
2019-04-01 15:00:00 18.6 13 Sudeste 21 Este 0 -- -- 57
2019-04-01 14:00:00 17.9 10 Sur 18 Sur 0 -- -- 60
2019-04-01 13:00:00 16.1 7 Sur 14 Sur 0 -- -- 59
2019-04-01 12:00:00 15.6 6 Sur 13 Sudeste 0 -- -- 70
2019-04-01 11:00:00 14.1 6 Sudeste 16 Noroeste 0 -- -- 74
2019-04-01 10:00:00 11.7 13 Noroeste 19 Norte 0 -- -- 82
2019-04-01 09:00:00 9.4 6 Norte 9 Norte 0 -- -- 92
2019-04-01 08:00:00 9.5 2 Sudeste 8 Oeste 0 -- -- 91
2019-04-01 07:00:00 9.4 6 Noroeste 11 Norte 0 -- -- 93
2019-04-01 06:00:00 9.4 6 Norte 8 Noroeste 0 -- -- 93
2019-04-01 05:00:00 9 4 Norte 12 Norte 0 -- -- 93
2019-04-01 04:00:00 9.4 6 Norte 16 Noroeste 0 -- -- 92
2019-04-01 03:00:00 9.7 11 Noroeste 17 Noroeste 0 -- -- 91
2019-04-01 02:00:00 9.7 12 Noroeste 19 Noroeste 0 -- -- 91
2019-04-01 01:00:00 9.8 9 Noroeste 17 Noroeste 0 -- -- 90
2019-04-01 00:00:00 9.9 12 Noroeste 18 Noroeste 0 -- -- 90
2019-03-31 23:00:00 9.9 9 Noroeste 16 Norte 0 -- -- 91
2019-03-31 22:00:00 9.8 12 Norte 20 Noroeste 0 -- -- 91
2019-03-31 21:00:00 9.7 8 Noroeste 13 Noroeste 0 -- -- 91
2019-03-31 20:00:00 9.7 6 Norte 16 Noroeste 0 -- -- 90
2019-03-31 19:00:00 9.6 13 Norte 22 Norte 0.2 -- -- 90
2019-03-31 18:00:00 9.9 13 Noroeste 24 Norte 0 -- -- 87
2019-03-31 17:00:00 9.7 17 Noroeste 29 Noroeste 0 -- -- 86
2019-03-31 16:00:00 9.7 20 Norte 28 Norte 0 -- -- 88
2019-03-31 15:00:00 9.5 15 Noroeste 24 Noroeste 0.2 -- -- 87
2019-03-31 14:00:00 9 17 Norte 28 Norte 0.2 -- -- 87
2019-03-31 13:00:00 8.6 18 Noroeste 30 Norte 0 -- -- 89
2019-03-31 12:00:00 7.7 13 Noroeste 22 Noroeste 0.2 -- -- 92
2019-03-31 11:00:00 7.4 14 Norte 27 Norte 0 -- -- 90
2019-03-31 10:00:00 7.4 15 Norte 25 Norte 0.4 -- -- 90
2019-03-31 09:00:00 7.1 14 Norte 26 Norte 0.4 -- -- 93
2019-03-31 08:00:00 6.9 13 Norte 20 Noroeste 1.8 -- -- 93
2019-03-31 07:00:00 7.1 9 Noroeste 21 Noroeste 3.4 -- -- 91
2019-03-31 06:00:00 7.6 11 Noroeste 19 Noroeste 1.4 -- -- 88
2019-03-31 05:00:00 8 13 Noroeste 21 Noroeste 0.2 -- -- 83
2019-03-31 03:00:00 8.6 2 Norte 4 Norte 0 -- -- 70
2019-03-31 01:00:00 8.7 3 Sur 10 Sur 0 -- -- 70
2019-03-31 00:00:00 8.4 8 Sudoeste 14 Oeste 0 -- -- 73
2019-03-30 23:00:00 8.6 5 Sudoeste 9 Sur 0 -- -- 75
2019-03-30 22:00:00 9.1 2 Sudoeste 14 Oeste 0 -- -- 71
2019-03-30 21:00:00 9.7 9 Oeste 13 Oeste 0 -- -- 68
2019-03-30 20:00:00 10.6 6 Sur 16 Este 0 -- -- 64
2019-03-30 19:00:00 12.3 12 Sudeste 22 Este 0 -- -- 58
2019-03-30 18:00:00 13.8 17 Sudeste 27 Este 0 -- -- 55
2019-03-30 17:00:00 15 19 Sudeste 35 Sur 0 -- -- 54
2019-03-30 16:00:00 16.8 16 Sudeste 27 Este 0 -- -- 48
2019-03-30 15:00:00 16.1 14 Sudeste 28 Sudeste 0 -- -- 48
2019-03-30 14:00:00 16.3 15 Este 25 Este 0 -- -- 45
2019-03-30 13:00:00 16.1 10 Sudeste 22 Sudeste 0 -- -- 45
2019-03-30 12:00:00 14.4 9 Este 18 Este 0 -- -- 50
2019-03-30 11:00:00 12.4 3 Este 15 Nordeste 0 -- -- 56
2019-03-30 10:00:00 10.6 6 Sur 10 Sudeste 0 -- -- 63
2019-03-30 09:00:00 5.9 2 Noroeste 4 Noroeste 0 -- -- 77
2019-03-30 08:00:00 2.8 0 Calma 5 Norte 0 -- -- 86
2019-03-30 07:00:00 1 0 Calma 6 Norte 0 -- -- 84
2019-03-30 06:00:00 1.3 4 Norte 8 Norte 0 -- -- 87
2019-03-30 05:00:00 1.3 3 Noroeste 10 Noroeste 0 -- -- 80
2019-03-30 04:00:00 2.7 9 Norte 14 Noroeste 0 -- -- 80
2019-03-30 03:00:00 2.4 0 Calma 5 Noroeste 0 -- -- 76
2019-03-30 02:00:00 2.1 3 Noroeste 4 Noroeste 0 -- -- 78
2019-03-30 01:00:00 2.4 0 Calma 6 Norte 0 -- -- 77
2019-03-30 00:00:00 4.3 4 Noroeste 8 Sudoeste 0 -- -- 72
2019-03-29 23:00:00 5.6 5 Sudoeste 9 Sudoeste 0 -- -- 74
2019-03-29 22:00:00 6.7 8 Sur 13 Oeste 0 -- -- 60
2019-03-29 21:00:00 8.4 8 Sudoeste 14 Noroeste 0 -- -- 60
2019-03-29 20:00:00 10.4 4 Norte 17 Este 0 -- -- 60
2019-03-29 19:00:00 11.5 13 Este 22 Este 0 -- -- 58
2019-03-29 18:00:00 12.6 15 Este 26 Este 0 -- -- 56
2019-03-29 17:00:00 13 14 Este 27 Este 0 -- -- 55
2019-03-29 16:00:00 13.4 15 Este 27 Sudeste 0 -- -- 53
2019-03-29 15:00:00 13.9 14 Sudeste 27 Sudeste 0 -- -- 49
2019-03-29 14:00:00 14.7 14 Sudeste 33 Este 0 -- -- 47
2019-03-29 13:00:00 13.6 17 Este 30 Este 0 -- -- 50
2019-03-29 12:00:00 12.5 16 Este 32 Sur 0 -- -- 52
2019-03-29 11:00:00 11.3 9 Sudeste 24 Sudeste 0 -- -- 61
2019-03-29 10:00:00 10 6 Sur 11 Sur 0 -- -- 61
2019-03-29 09:00:00 8.5 8 Noroeste 15 Norte 0 -- -- 66
2019-03-29 08:00:00 2.5 8 Norte 12 Norte 0 -- -- 82
2019-03-29 07:00:00 -0.3 0 Calma 5 Sudoeste 0 -- -- 89
2019-03-29 06:00:00 0.4 0 Calma 17 Noroeste 0 -- -- 85
2019-03-29 05:00:00 2.1 9 Noroeste 13 Noroeste 0 -- -- 85
2019-03-29 04:00:00 1.7 3 Noroeste 12 Noroeste 0 -- -- 86
2019-03-29 03:00:00 1.7 3 Norte 12 Norte 0 -- -- 87
2019-03-29 02:00:00 2 8 Noroeste 12 Noroeste 0 -- -- 87
2019-03-29 01:00:00 2.6 3 Noroeste 9 Noroeste 0 -- -- 88
2019-03-29 00:00:00 3 6 Noroeste 8 Noroeste 0 -- -- 86
2019-03-28 23:00:00 3.5 4 Norte 6 Norte 0 -- -- 83
2019-03-28 22:00:00 6.9 4 Sudoeste 7 Sudoeste 0 -- -- 74
2019-03-28 21:00:00 7.1 4 Nordeste 15 Este 0 -- -- 69
2019-03-28 20:00:00 9.9 9 Sudeste 23 Sudeste 0 -- -- 49
2019-03-28 19:00:00 12.4 16 Sudeste 29 Este 0 -- -- 36
2019-03-28 18:00:00 14.1 19 Sudeste 32 Este 0 -- -- 27
2019-03-28 17:00:00 15.1 17 Sudeste 32 Este 0 -- -- 28
2019-03-28 16:00:00 15.8 18 Este 35 Sudeste 0 -- -- 28
2019-03-28 15:00:00 16 10 Este 31 Sudeste 0 -- -- 27
2019-03-28 14:00:00 16.7 9 Sudeste 26 Este 0 -- -- 26
2019-03-28 13:00:00 15.8 13 Sudeste 27 Este 0 -- -- 27
2019-03-28 12:00:00 15.3 11 Sudeste 28 Este 0 -- -- 27
2019-03-28 11:00:00 14.2 15 Sudeste 28 Sudeste 0 -- -- 28
2019-03-28 10:00:00 11.1 4 Sur 8 Sur 0 -- -- 32
2019-03-28 09:00:00 6.2 2 Sur 5 Sudeste 0 -- -- 59
2019-03-28 08:00:00 1.6 0 Calma 4 Noroeste 0 -- -- 73
2019-03-28 07:00:00 -0.7 2 Sur 9 Norte 0 -- -- 84
2019-03-28 06:00:00 -0.8 0 Calma 7 Norte 0 -- -- 84
2019-03-28 05:00:00 0 0 Calma 7 Norte 0 -- -- 86
2019-03-28 04:00:00 1 4 Sudoeste 12 Noroeste 0 -- -- 82
2019-03-28 03:00:00 1.9 4 Noroeste 13 Noroeste 0 -- -- 83
2019-03-28 02:00:00 2.1 7 Noroeste 14 Noroeste 0 -- -- 84
2019-03-28 01:00:00 3.9 10 Noroeste 16 Noroeste 0 -- -- 80
2019-03-28 00:00:00 2.5 8 Norte 10 Norte 0 -- -- 81
2019-03-27 23:00:00 6 7 Sudoeste 10 Sudoeste 0 -- -- 77
2019-03-27 22:00:00 6.8 9 Sudoeste 12 Oeste 0 -- -- 73
2019-03-27 21:00:00 7.8 6 Sudoeste 11 Sudeste 0 -- -- 68
2019-03-27 20:00:00 9.2 10 Sur 16 Este 0 -- -- 60
2019-03-27 19:00:00 11.6 16 Este 29 Este 0 -- -- 52
2019-03-27 18:00:00 13.5 20 Este 32 Sudeste 0 -- -- 45
2019-03-27 17:00:00 15.8 17 Este 31 Este 0 -- -- 25
2019-03-27 16:00:00 15.7 23 Nordeste 34 Nordeste 0 -- -- 25
2019-03-27 15:00:00 15.2 12 Nordeste 35 Nordeste 0 -- -- 33
2019-03-27 14:00:00 15.6 15 Este 33 Este 0 -- -- 33
2019-03-27 13:00:00 14.3 19 Este 31 Este 0 -- -- 33
2019-03-27 12:00:00 13.4 12 Este 26 Nordeste 0 -- -- 38
2019-03-27 11:00:00 11.9 15 Nordeste 30 Nordeste 0 -- -- 41
2019-03-27 10:00:00 11 17 Nordeste 25 Nordeste 0 -- -- 44
2019-03-27 09:00:00 8.9 10 Norte 16 Norte 0 -- -- 59
2019-03-27 08:00:00 6.2 8 Noroeste 19 Noroeste 0 -- -- 67
2019-03-27 07:00:00 2.9 10 Noroeste 15 Norte 0 -- -- 81
2019-03-27 06:00:00 2.4 9 Noroeste 17 Noroeste 0 -- -- 82
2019-03-27 05:00:00 3.4 12 Noroeste 18 Noroeste 0 -- -- 78
2019-03-27 04:00:00 3.3 12 Noroeste 19 Noroeste 0 -- -- 79
2019-03-27 03:00:00 4.2 13 Noroeste 20 Noroeste 0 -- -- 75
2019-03-27 02:00:00 4.4 7 Noroeste 12 Noroeste 0 -- -- 83
2019-03-27 01:00:00 5.2 5 Norte 15 Norte 0 -- -- 79
2019-03-27 00:00:00 6 12 Norte 18 Noroeste 0 -- -- 77